sensor_id;sensor_type;location;lat;lon;timestamp;temperature;humidity
7317;DHT22;3699;51.462;6.696;2022-10-23T00:01:35;14.70;99.90
7317;DHT22;3699;51.462;6.696;2022-10-23T00:04:06;15.20;99.90
7317;DHT22;3699;51.462;6.696;2022-10-23T00:06:36;14.60;99.90
7317;DHT22;3699;51.462;6.696;2022-10-23T00:09:04;14.60;99.90
7317;DHT22;3699;51.462;6.696;2022-10-23T00:11:32;14.60;99.90
7317;DHT22;3699;51.462;6.696;2022-10-23T00:14:01;14.50;99.90
7317;DHT22;3699;51.462;6.696;2022-10-23T00:16:29;14.50;99.90
7317;DHT22;3699;51.462;6.696;2022-10-23T00:18:56;14.50;99.90
7317;DHT22;3699;51.462;6.696;2022-10-23T00:21:25;14.50;99.90
7317;DHT22;3699;51.462;6.696;2022-10-23T00:23:52;14.50;99.90
7317;DHT22;3699;51.462;6.696;2022-10-23T00:26:19;14.50;99.90
7317;DHT22;3699;51.462;6.696;2022-10-23T00:28:47;14.40;99.90
7317;DHT22;3699;51.462;6.696;2022-10-23T00:31:15;14.40;99.90
7317;DHT22;3699;51.462;6.696;2022-10-23T00:33:42;14.40;99.90
7317;DHT22;3699;51.462;6.696;2022-10-23T00:36:11;14.40;99.90
7317;DHT22;3699;51.462;6.696;2022-10-23T00:38:39;14.40;99.90
7317;DHT22;3699;51.462;6.696;2022-10-23T00:41:07;14.40;99.90
7317;DHT22;3699;51.462;6.696;2022-10-23T00:43:55;14.40;99.90
7317;DHT22;3699;51.462;6.696;2022-10-23T00:46:22;14.30;99.90
7317;DHT22;3699;51.462;6.696;2022-10-23T00:48:49;14.30;99.90
7317;DHT22;3699;51.462;6.696;2022-10-23T00:51:16;14.20;99.90
7317;DHT22;3699;51.462;6.696;2022-10-23T00:53:44;14.20;99.90
7317;DHT22;3699;51.462;6.696;2022-10-23T00:56:13;14.20;99.90
7317;DHT22;3699;51.462;6.696;2022-10-23T00:58:40;14.10;99.90
7317;DHT22;3699;51.462;6.696;2022-10-23T01:01:15;14.00;99.90
7317;DHT22;3699;51.462;6.696;2022-10-23T01:03:43;14.00;99.90
7317;DHT22;3699;51.462;6.696;2022-10-23T01:06:14;14.00;99.90
7317;DHT22;3699;51.462;6.696;2022-10-23T01:08:50;14.00;99.90
7317;DHT22;3699;51.462;6.696;2022-10-23T01:11:22;13.90;99.90
7317;DHT22;3699;51.462;6.696;2022-10-23T01:13:58;13.90;99.90
7317;DHT22;3699;51.462;6.696;2022-10-23T01:16:33;13.80;99.90
7317;DHT22;3699;51.462;6.696;2022-10-23T01:19:08;13.80;99.90
7317;DHT22;3699;51.462;6.696;2022-10-23T01:21:48;13.80;99.90
7317;DHT22;3699;51.462;6.696;2022-10-23T01:24:29;13.80;99.90
7317;DHT22;3699;51.462;6.696;2022-10-23T01:27:14;13.80;99.90
7317;DHT22;3699;51.462;6.696;2022-10-23T01:29:44;13.70;99.90
7317;DHT22;3699;51.462;6.696;2022-10-23T01:32:15;13.80;99.90
7317;DHT22;3699;51.462;6.696;2022-10-23T01:34:46;13.80;99.90
7317;DHT22;3699;51.462;6.696;2022-10-23T01:37:21;13.80;99.90
7317;DHT22;3699;51.462;6.696;2022-10-23T01:39:52;13.80;99.90
7317;DHT22;3699;51.462;6.696;2022-10-23T01:42:24;13.80;99.90
7317;DHT22;3699;51.462;6.696;2022-10-23T01:44:58;13.80;99.90
7317;DHT22;3699;51.462;6.696;2022-10-23T01:47:28;13.80;99.90
7317;DHT22;3699;51.462;6.696;2022-10-23T01:49:57;13.80;99.90
7317;DHT22;3699;51.462;6.696;2022-10-23T01:52:25;13.80;99.90
7317;DHT22;3699;51.462;6.696;2022-10-23T01:54:55;13.90;99.90
7317;DHT22;3699;51.462;6.696;2022-10-23T01:57:25;13.90;99.90
7317;DHT22;3699;51.462;6.696;2022-10-23T01:59:56;13.90;99.90
7317;DHT22;3699;51.462;6.696;2022-10-23T02:02:25;14.00;99.90
7317;DHT22;3699;51.462;6.696;2022-10-23T02:04:56;13.90;99.90
7317;DHT22;3699;51.462;6.696;2022-10-23T02:07:25;14.00;99.90
7317;DHT22;3699;51.462;6.696;2022-10-23T02:09:52;14.00;99.90
7317;DHT22;3699;51.462;6.696;2022-10-23T02:12:28;14.00;99.90
7317;DHT22;3699;51.462;6.696;2022-10-23T02:15:02;14.00;99.90
7317;DHT22;3699;51.462;6.696;2022-10-23T02:17:39;14.00;99.90
7317;DHT22;3699;51.462;6.696;2022-10-23T02:20:16;14.00;99.90
7317;DHT22;3699;51.462;6.696;2022-10-23T02:22:51;14.10;99.90
7317;DHT22;3699;51.462;6.696;2022-10-23T02:25:26;14.10;99.90
7317;DHT22;3699;51.462;6.696;2022-10-23T02:28:01;14.10;99.90
7317;DHT22;3699;51.462;6.696;2022-10-23T02:30:29;14.10;99.90
7317;DHT22;3699;51.462;6.696;2022-10-23T02:32:58;14.10;99.90
7317;DHT22;3699;51.462;6.696;2022-10-23T02:35:25;14.20;99.90
7317;DHT22;3699;51.462;6.696;2022-10-23T02:37:53;14.20;99.90
7317;DHT22;3699;51.462;6.696;2022-10-23T02:40:20;14.20;99.90
7317;DHT22;3699;51.462;6.696;2022-10-23T02:42:51;14.20;99.90
7317;DHT22;3699;51.462;6.696;2022-10-23T02:45:27;14.20;99.90
7317;DHT22;3699;51.462;6.696;2022-10-23T02:47:59;14.20;99.90
7317;DHT22;3699;51.462;6.696;2022-10-23T02:50:32;14.20;99.90
7317;DHT22;3699;51.462;6.696;2022-10-23T02:53:06;14.20;99.90
7317;DHT22;3699;51.462;6.696;2022-10-23T02:55:43;14.20;99.90
7317;DHT22;3699;51.462;6.696;2022-10-23T02:58:19;14.20;99.90
7317;DHT22;3699;51.462;6.696;2022-10-23T03:00:51;14.20;99.90
7317;DHT22;3699;51.462;6.696;2022-10-23T03:03:22;14.20;99.90
7317;DHT22;3699;51.462;6.696;2022-10-23T03:05:50;14.20;99.90
7317;DHT22;3699;51.462;6.696;2022-10-23T03:08:17;14.30;99.90
7317;DHT22;3699;51.462;6.696;2022-10-23T03:10:44;14.30;99.90
7317;DHT22;3699;51.462;6.696;2022-10-23T03:13:11;14.30;99.90
7317;DHT22;3699;51.462;6.696;2022-10-23T03:15:38;14.30;99.90
7317;DHT22;3699;51.462;6.696;2022-10-23T03:18:06;14.30;99.90
7317;DHT22;3699;51.462;6.696;2022-10-23T03:20:33;14.30;99.90
7317;DHT22;3699;51.462;6.696;2022-10-23T03:22:59;14.30;99.90
7317;DHT22;3699;51.462;6.696;2022-10-23T03:25:26;14.30;99.90
7317;DHT22;3699;51.462;6.696;2022-10-23T03:27:53;14.30;99.90
7317;DHT22;3699;51.462;6.696;2022-10-23T03:30:20;14.30;99.90
7317;DHT22;3699;51.462;6.696;2022-10-23T03:32:47;14.30;99.90
7317;DHT22;3699;51.462;6.696;2022-10-23T03:35:15;14.30;99.90
7317;DHT22;3699;51.462;6.696;2022-10-23T03:37:42;14.30;99.90
7317;DHT22;3699;51.462;6.696;2022-10-23T03:40:10;14.30;99.90
7317;DHT22;3699;51.462;6.696;2022-10-23T03:42:37;14.20;99.90
7317;DHT22;3699;51.462;6.696;2022-10-23T03:45:04;14.30;99.90
7317;DHT22;3699;51.462;6.696;2022-10-23T03:47:31;14.30;99.90
7317;DHT22;3699;51.462;6.696;2022-10-23T03:49:59;14.20;99.90
7317;DHT22;3699;51.462;6.696;2022-10-23T03:52:27;14.20;99.90
7317;DHT22;3699;51.462;6.696;2022-10-23T03:54:54;14.20;99.90
7317;DHT22;3699;51.462;6.696;2022-10-23T03:57:21;14.20;99.90
7317;DHT22;3699;51.462;6.696;2022-10-23T03:59:48;14.20;99.90
7317;DHT22;3699;51.462;6.696;2022-10-23T04:02:15;14.20;99.90
7317;DHT22;3699;51.462;6.696;2022-10-23T04:04:42;14.10;99.90
7317;DHT22;3699;51.462;6.696;2022-10-23T04:07:09;14.10;99.90
7317;DHT22;3699;51.462;6.696;2022-10-23T04:09:37;14.00;99.90
7317;DHT22;3699;51.462;6.696;2022-10-23T04:12:05;13.90;99.90
7317;DHT22;3699;51.462;6.696;2022-10-23T04:14:32;14.00;99.90
7317;DHT22;3699;51.462;6.696;2022-10-23T04:16:58;13.90;99.90
7317;DHT22;3699;51.462;6.696;2022-10-23T04:19:26;13.90;99.90
7317;DHT22;3699;51.462;6.696;2022-10-23T04:21:52;13.90;99.90
7317;DHT22;3699;51.462;6.696;2022-10-23T04:24:19;13.80;99.90
7317;DHT22;3699;51.462;6.696;2022-10-23T04:26:47;13.90;99.90
7317;DHT22;3699;51.462;6.696;2022-10-23T04:29:14;13.90;99.90
7317;DHT22;3699;51.462;6.696;2022-10-23T04:31:40;13.90;99.90
7317;DHT22;3699;51.462;6.696;2022-10-23T04:34:07;13.90;99.90
7317;DHT22;3699;51.462;6.696;2022-10-23T04:36:34;13.90;99.90
7317;DHT22;3699;51.462;6.696;2022-10-23T04:39:01;13.90;99.90
7317;DHT22;3699;51.462;6.696;2022-10-23T04:41:28;13.90;99.90
7317;DHT22;3699;51.462;6.696;2022-10-23T04:43:56;14.00;99.90
7317;DHT22;3699;51.462;6.696;2022-10-23T04:46:22;14.00;99.90
7317;DHT22;3699;51.462;6.696;2022-10-23T04:48:49;14.00;99.90
7317;DHT22;3699;51.462;6.696;2022-10-23T04:51:16;14.10;99.90
7317;DHT22;3699;51.462;6.696;2022-10-23T04:53:43;14.00;99.90
7317;DHT22;3699;51.462;6.696;2022-10-23T04:56:12;14.00;99.90
7317;DHT22;3699;51.462;6.696;2022-10-23T04:58:39;14.10;99.90
7317;DHT22;3699;51.462;6.696;2022-10-23T05:01:08;14.10;99.90
7317;DHT22;3699;51.462;6.696;2022-10-23T05:03:36;14.10;99.90
7317;DHT22;3699;51.462;6.696;2022-10-23T05:06:03;14.20;99.90
7317;DHT22;3699;51.462;6.696;2022-10-23T05:08:30;14.20;99.90
7317;DHT22;3699;51.462;6.696;2022-10-23T05:10:57;14.20;99.90
7317;DHT22;3699;51.462;6.696;2022-10-23T05:13:24;14.30;99.90
7317;DHT22;3699;51.462;6.696;2022-10-23T05:15:51;14.30;99.90
7317;DHT22;3699;51.462;6.696;2022-10-23T05:18:23;14.30;99.90
7317;DHT22;3699;51.462;6.696;2022-10-23T05:20:55;14.30;99.90
7317;DHT22;3699;51.462;6.696;2022-10-23T05:23:23;14.40;99.90
7317;DHT22;3699;51.462;6.696;2022-10-23T05:25:50;14.40;99.90
7317;DHT22;3699;51.462;6.696;2022-10-23T05:28:17;14.40;99.90
7317;DHT22;3699;51.462;6.696;2022-10-23T05:30:44;14.50;99.90
7317;DHT22;3699;51.462;6.696;2022-10-23T05:33:11;14.50;99.90
7317;DHT22;3699;51.462;6.696;2022-10-23T05:35:40;14.50;99.90
7317;DHT22;3699;51.462;6.696;2022-10-23T05:38:08;14.50;99.90
7317;DHT22;3699;51.462;6.696;2022-10-23T05:40:35;14.50;99.90
7317;DHT22;3699;51.462;6.696;2022-10-23T05:43:02;14.60;99.90
7317;DHT22;3699;51.462;6.696;2022-10-23T05:45:29;14.50;99.90
7317;DHT22;3699;51.462;6.696;2022-10-23T05:47:56;14.50;99.90
7317;DHT22;3699;51.462;6.696;2022-10-23T05:50:22;14.50;99.90
7317;DHT22;3699;51.462;6.696;2022-10-23T05:52:50;14.60;99.90
7317;DHT22;3699;51.462;6.696;2022-10-23T05:55:17;14.60;99.90
7317;DHT22;3699;51.462;6.696;2022-10-23T05:57:44;14.60;99.90
7317;DHT22;3699;51.462;6.696;2022-10-23T06:00:12;14.60;99.90
7317;DHT22;3699;51.462;6.696;2022-10-23T06:02:39;14.70;99.90
7317;DHT22;3699;51.462;6.696;2022-10-23T06:05:06;14.70;99.90
7317;DHT22;3699;51.462;6.696;2022-10-23T06:07:33;14.70;99.90
7317;DHT22;3699;51.462;6.696;2022-10-23T06:10:01;14.80;99.90
7317;DHT22;3699;51.462;6.696;2022-10-23T06:12:28;14.70;99.90
7317;DHT22;3699;51.462;6.696;2022-10-23T06:14:55;14.70;99.90
7317;DHT22;3699;51.462;6.696;2022-10-23T06:17:21;14.70;99.90
7317;DHT22;3699;51.462;6.696;2022-10-23T06:19:48;14.70;99.90
7317;DHT22;3699;51.462;6.696;2022-10-23T06:22:15;14.70;99.90
7317;DHT22;3699;51.462;6.696;2022-10-23T06:24:42;14.70;99.90
7317;DHT22;3699;51.462;6.696;2022-10-23T06:27:10;14.70;99.90
7317;DHT22;3699;51.462;6.696;2022-10-23T06:29:37;14.80;99.90
7317;DHT22;3699;51.462;6.696;2022-10-23T06:32:04;14.80;99.90
7317;DHT22;3699;51.462;6.696;2022-10-23T06:34:31;14.80;99.90
7317;DHT22;3699;51.462;6.696;2022-10-23T06:36:57;14.80;99.90
7317;DHT22;3699;51.462;6.696;2022-10-23T06:39:24;14.80;99.90
7317;DHT22;3699;51.462;6.696;2022-10-23T06:41:51;14.80;99.90
7317;DHT22;3699;51.462;6.696;2022-10-23T06:44:19;14.80;99.90
7317;DHT22;3699;51.462;6.696;2022-10-23T06:46:46;14.80;99.90
7317;DHT22;3699;51.462;6.696;2022-10-23T06:49:15;14.80;99.90
7317;DHT22;3699;51.462;6.696;2022-10-23T06:51:42;14.80;99.90
7317;DHT22;3699;51.462;6.696;2022-10-23T06:54:09;14.90;99.90
7317;DHT22;3699;51.462;6.696;2022-10-23T06:56:37;14.90;99.90
7317;DHT22;3699;51.462;6.696;2022-10-23T06:59:03;14.90;99.90
7317;DHT22;3699;51.462;6.696;2022-10-23T07:01:33;14.80;99.90
7317;DHT22;3699;51.462;6.696;2022-10-23T07:04:00;14.90;99.90
7317;DHT22;3699;51.462;6.696;2022-10-23T07:06:26;15.00;99.90
7317;DHT22;3699;51.462;6.696;2022-10-23T07:08:53;14.90;99.90
7317;DHT22;3699;51.462;6.696;2022-10-23T07:11:20;15.00;99.90
7317;DHT22;3699;51.462;6.696;2022-10-23T07:13:47;15.10;99.90
7317;DHT22;3699;51.462;6.696;2022-10-23T07:16:16;15.10;99.90
7317;DHT22;3699;51.462;6.696;2022-10-23T07:18:45;15.10;99.90
7317;DHT22;3699;51.462;6.696;2022-10-23T07:21:12;15.10;99.90
7317;DHT22;3699;51.462;6.696;2022-10-23T07:23:39;15.20;99.90
7317;DHT22;3699;51.462;6.696;2022-10-23T07:26:07;15.20;99.90
7317;DHT22;3699;51.462;6.696;2022-10-23T07:28:34;15.20;99.90
7317;DHT22;3699;51.462;6.696;2022-10-23T07:31:01;15.30;99.90
7317;DHT22;3699;51.462;6.696;2022-10-23T07:33:28;15.40;99.90
7317;DHT22;3699;51.462;6.696;2022-10-23T07:35:56;15.40;99.90
7317;DHT22;3699;51.462;6.696;2022-10-23T07:38:23;15.50;99.90
7317;DHT22;3699;51.462;6.696;2022-10-23T07:40:50;15.50;99.90
7317;DHT22;3699;51.462;6.696;2022-10-23T07:43:18;15.60;99.90
7317;DHT22;3699;51.462;6.696;2022-10-23T07:45:46;15.70;99.90
7317;DHT22;3699;51.462;6.696;2022-10-23T07:48:13;15.70;99.90
7317;DHT22;3699;51.462;6.696;2022-10-23T07:50:39;15.80;99.90
7317;DHT22;3699;51.462;6.696;2022-10-23T07:53:11;15.90;99.90
7317;DHT22;3699;51.462;6.696;2022-10-23T07:55:40;15.90;99.90
7317;DHT22;3699;51.462;6.696;2022-10-23T07:58:06;16.00;99.90
7317;DHT22;3699;51.462;6.696;2022-10-23T08:00:33;16.10;99.90
7317;DHT22;3699;51.462;6.696;2022-10-23T08:05:27;16.20;99.90
7317;DHT22;3699;51.462;6.696;2022-10-23T08:07:54;16.30;99.90
7317;DHT22;3699;51.462;6.696;2022-10-23T08:10:22;16.30;99.90
7317;DHT22;3699;51.462;6.696;2022-10-23T08:12:49;16.40;99.90
7317;DHT22;3699;51.462;6.696;2022-10-23T08:15:16;16.50;99.90
7317;DHT22;3699;51.462;6.696;2022-10-23T08:17:43;16.50;99.90
7317;DHT22;3699;51.462;6.696;2022-10-23T08:20:10;16.60;99.90
7317;DHT22;3699;51.462;6.696;2022-10-23T08:22:38;16.70;99.90
7317;DHT22;3699;51.462;6.696;2022-10-23T08:25:05;16.80;99.90
7317;DHT22;3699;51.462;6.696;2022-10-23T08:27:33;16.90;99.90
7317;DHT22;3699;51.462;6.696;2022-10-23T08:30:00;17.00;99.90
7317;DHT22;3699;51.462;6.696;2022-10-23T08:32:28;17.20;99.90
7317;DHT22;3699;51.462;6.696;2022-10-23T08:34:54;17.30;99.90
7317;DHT22;3699;51.462;6.696;2022-10-23T08:37:21;17.50;99.90
7317;DHT22;3699;51.462;6.696;2022-10-23T08:39:48;17.70;99.90
7317;DHT22;3699;51.462;6.696;2022-10-23T08:42:19;17.70;99.90
7317;DHT22;3699;51.462;6.696;2022-10-23T08:44:53;17.80;99.90
7317;DHT22;3699;51.462;6.696;2022-10-23T08:47:26;17.90;99.90
7317;DHT22;3699;51.462;6.696;2022-10-23T08:49:58;18.00;99.90
7317;DHT22;3699;51.462;6.696;2022-10-23T08:52:31;18.20;99.90
7317;DHT22;3699;51.462;6.696;2022-10-23T08:55:04;18.30;99.90
7317;DHT22;3699;51.462;6.696;2022-10-23T08:57:37;18.40;99.90
7317;DHT22;3699;51.462;6.696;2022-10-23T09:00:14;18.30;99.90
7317;DHT22;3699;51.462;6.696;2022-10-23T09:02:43;18.30;99.90
7317;DHT22;3699;51.462;6.696;2022-10-23T09:05:14;18.20;99.90
7317;DHT22;3699;51.462;6.696;2022-10-23T09:07:54;18.30;99.90
7317;DHT22;3699;51.462;6.696;2022-10-23T09:10:43;18.20;99.90
7317;DHT22;3699;51.462;6.696;2022-10-23T09:13:29;18.10;99.90
7317;DHT22;3699;51.462;6.696;2022-10-23T09:16:08;18.10;99.90
7317;DHT22;3699;51.462;6.696;2022-10-23T09:18:39;18.20;99.90
7317;DHT22;3699;51.462;6.696;2022-10-23T09:21:08;18.20;99.90
7317;DHT22;3699;51.462;6.696;2022-10-23T09:23:36;18.30;99.90
7317;DHT22;3699;51.462;6.696;2022-10-23T09:26:11;18.30;99.90
7317;DHT22;3699;51.462;6.696;2022-10-23T09:28:45;18.30;99.90
7317;DHT22;3699;51.462;6.696;2022-10-23T09:31:14;18.40;99.90
7317;DHT22;3699;51.462;6.696;2022-10-23T09:33:51;18.40;99.90
7317;DHT22;3699;51.462;6.696;2022-10-23T09:36:20;18.50;99.90
7317;DHT22;3699;51.462;6.696;2022-10-23T09:38:50;18.60;99.90
7317;DHT22;3699;51.462;6.696;2022-10-23T09:41:20;18.60;99.90
7317;DHT22;3699;51.462;6.696;2022-10-23T09:43:59;18.70;99.90
7317;DHT22;3699;51.462;6.696;2022-10-23T09:46:37;18.90;99.90
7317;DHT22;3699;51.462;6.696;2022-10-23T09:49:04;18.80;99.90
7317;DHT22;3699;51.462;6.696;2022-10-23T09:51:32;18.90;99.90
7317;DHT22;3699;51.462;6.696;2022-10-23T09:53:59;19.00;99.90
7317;DHT22;3699;51.462;6.696;2022-10-23T09:56:29;19.00;99.90
7317;DHT22;3699;51.462;6.696;2022-10-23T09:58:58;19.10;99.90
7317;DHT22;3699;51.462;6.696;2022-10-23T10:01:27;19.20;99.90
7317;DHT22;3699;51.462;6.696;2022-10-23T10:03:55;19.20;99.90
7317;DHT22;3699;51.462;6.696;2022-10-23T10:06:25;19.20;99.90
7317;DHT22;3699;51.462;6.696;2022-10-23T10:08:54;16.20;99.90
7317;DHT22;3699;51.462;6.696;2022-10-23T10:11:26;19.30;99.90
7317;DHT22;3699;51.462;6.696;2022-10-23T10:14:22;17.50;99.90
7317;DHT22;3699;51.462;6.696;2022-10-23T10:16:58;19.20;99.90
7317;DHT22;3699;51.462;6.696;2022-10-23T10:19:45;19.30;99.90
7317;DHT22;3699;51.462;6.696;2022-10-23T10:22:24;19.30;99.90
7317;DHT22;3699;51.462;6.696;2022-10-23T10:24:58;19.30;99.90
7317;DHT22;3699;51.462;6.696;2022-10-23T10:27:36;19.20;99.90
7317;DHT22;3699;51.462;6.696;2022-10-23T10:30:09;19.20;99.90
7317;DHT22;3699;51.462;6.696;2022-10-23T10:32:43;19.20;99.90
7317;DHT22;3699;51.462;6.696;2022-10-23T10:35:22;19.30;99.90
7317;DHT22;3699;51.462;6.696;2022-10-23T10:38:02;19.30;99.90
7317;DHT22;3699;51.462;6.696;2022-10-23T10:40:38;19.40;99.90
7317;DHT22;3699;51.462;6.696;2022-10-23T10:43:18;19.40;99.90
7317;DHT22;3699;51.462;6.696;2022-10-23T10:45:52;19.40;99.90
7317;DHT22;3699;51.462;6.696;2022-10-23T10:48:40;19.50;99.90
7317;DHT22;3699;51.462;6.696;2022-10-23T10:51:13;19.50;99.90
7317;DHT22;3699;51.462;6.696;2022-10-23T10:56:38;19.70;99.90
7317;DHT22;3699;51.462;6.696;2022-10-23T10:59:13;19.70;99.90
7317;DHT22;3699;51.462;6.696;2022-10-23T11:01:44;19.70;99.90
7317;DHT22;3699;51.462;6.696;2022-10-23T11:04:21;19.70;99.90
7317;DHT22;3699;51.462;6.696;2022-10-23T11:06:53;19.80;99.90
7317;DHT22;3699;51.462;6.696;2022-10-23T11:09:25;19.80;99.90
7317;DHT22;3699;51.462;6.696;2022-10-23T11:11:53;19.90;99.90
7317;DHT22;3699;51.462;6.696;2022-10-23T11:14:21;19.80;99.90
7317;DHT22;3699;51.462;6.696;2022-10-23T11:16:50;19.90;99.90
7317;DHT22;3699;51.462;6.696;2022-10-23T11:19:21;19.90;99.90
7317;DHT22;3699;51.462;6.696;2022-10-23T11:21:55;20.00;99.90
7317;DHT22;3699;51.462;6.696;2022-10-23T11:27:56;20.10;99.90
7317;DHT22;3699;51.462;6.696;2022-10-23T11:30:34;20.10;99.90
7317;DHT22;3699;51.462;6.696;2022-10-23T11:33:51;20.20;99.90
7317;DHT22;3699;51.462;6.696;2022-10-23T11:36:34;20.20;99.90
7317;DHT22;3699;51.462;6.696;2022-10-23T11:39:19;20.20;99.90
7317;DHT22;3699;51.462;6.696;2022-10-23T11:41:51;20.20;99.90
7317;DHT22;3699;51.462;6.696;2022-10-23T11:44:37;20.10;99.90
7317;DHT22;3699;51.462;6.696;2022-10-23T11:47:24;20.10;99.90
7317;DHT22;3699;51.462;6.696;2022-10-23T11:50:10;20.10;99.90
7317;DHT22;3699;51.462;6.696;2022-10-23T11:52:38;20.10;99.90
7317;DHT22;3699;51.462;6.696;2022-10-23T11:55:16;20.10;99.90
7317;DHT22;3699;51.462;6.696;2022-10-23T11:57:58;20.10;99.90
7317;DHT22;3699;51.462;6.696;2022-10-23T12:00:38;20.00;99.90
7317;DHT22;3699;51.462;6.696;2022-10-23T12:03:17;20.00;99.90
7317;DHT22;3699;51.462;6.696;2022-10-23T12:05:45;20.00;99.90
7317;DHT22;3699;51.462;6.696;2022-10-23T12:08:21;20.00;99.90
7317;DHT22;3699;51.462;6.696;2022-10-23T12:10:50;20.10;99.90
7317;DHT22;3699;51.462;6.696;2022-10-23T12:13:29;20.60;99.90
7317;DHT22;3699;51.462;6.696;2022-10-23T12:15:56;20.20;99.90
7317;DHT22;3699;51.462;6.696;2022-10-23T12:18:23;20.30;99.90
7317;DHT22;3699;51.462;6.696;2022-10-23T12:20:51;20.40;99.90
7317;DHT22;3699;51.462;6.696;2022-10-23T12:23:37;20.50;99.90
7317;DHT22;3699;51.462;6.696;2022-10-23T12:26:22;20.60;99.90
7317;DHT22;3699;51.462;6.696;2022-10-23T12:28:58;20.70;99.90
7317;DHT22;3699;51.462;6.696;2022-10-23T12:31:37;20.80;99.90
7317;DHT22;3699;51.462;6.696;2022-10-23T12:34:17;20.80;99.90
7317;DHT22;3699;51.462;6.696;2022-10-23T12:37:00;20.80;99.90
7317;DHT22;3699;51.462;6.696;2022-10-23T12:39:35;20.80;99.90
7317;DHT22;3699;51.462;6.696;2022-10-23T12:42:14;20.80;99.90
7317;DHT22;3699;51.462;6.696;2022-10-23T12:44:41;20.80;99.90
7317;DHT22;3699;51.462;6.696;2022-10-23T12:47:15;20.80;99.90
7317;DHT22;3699;51.462;6.696;2022-10-23T12:49:47;20.70;99.90
7317;DHT22;3699;51.462;6.696;2022-10-23T12:52:16;20.80;99.90
7317;DHT22;3699;51.462;6.696;2022-10-23T12:54:43;20.90;99.90
7317;DHT22;3699;51.462;6.696;2022-10-23T12:57:19;21.00;99.90
7317;DHT22;3699;51.462;6.696;2022-10-23T12:59:48;21.10;99.90
7317;DHT22;3699;51.462;6.696;2022-10-23T13:02:22;21.10;99.90
7317;DHT22;3699;51.462;6.696;2022-10-23T13:04:51;21.00;99.90
7317;DHT22;3699;51.462;6.696;2022-10-23T13:07:21;20.90;99.90
7317;DHT22;3699;51.462;6.696;2022-10-23T13:09:48;20.90;99.90
7317;DHT22;3699;51.462;6.696;2022-10-23T13:12:19;20.90;99.90
7317;DHT22;3699;51.462;6.696;2022-10-23T13:14:58;20.90;99.90
7317;DHT22;3699;51.462;6.696;2022-10-23T13:17:36;20.80;99.90
7317;DHT22;3699;51.462;6.696;2022-10-23T13:20:21;20.80;99.90
7317;DHT22;3699;51.462;6.696;2022-10-23T13:22:49;20.80;99.90
7317;DHT22;3699;51.462;6.696;2022-10-23T13:25:25;20.70;99.90
7317;DHT22;3699;51.462;6.696;2022-10-23T13:30:57;20.60;99.90
7317;DHT22;3699;51.462;6.696;2022-10-23T13:33:31;20.60;99.90
7317;DHT22;3699;51.462;6.696;2022-10-23T13:36:00;20.60;99.90
7317;DHT22;3699;51.462;6.696;2022-10-23T13:38:28;20.70;99.90
7317;DHT22;3699;51.462;6.696;2022-10-23T13:40:57;20.60;99.90
7317;DHT22;3699;51.462;6.696;2022-10-23T13:43:26;20.60;99.90
7317;DHT22;3699;51.462;6.696;2022-10-23T13:45:55;20.50;99.90
7317;DHT22;3699;51.462;6.696;2022-10-23T13:48:22;20.50;99.90
7317;DHT22;3699;51.462;6.696;2022-10-23T13:50:49;20.50;99.90
7317;DHT22;3699;51.462;6.696;2022-10-23T13:53:16;20.50;99.90
7317;DHT22;3699;51.462;6.696;2022-10-23T13:55:44;20.40;99.90
7317;DHT22;3699;51.462;6.696;2022-10-23T13:58:11;20.50;99.90
7317;DHT22;3699;51.462;6.696;2022-10-23T14:00:39;20.40;99.90
7317;DHT22;3699;51.462;6.696;2022-10-23T14:03:08;20.40;99.90
7317;DHT22;3699;51.462;6.696;2022-10-23T14:05:35;20.40;99.90
7317;DHT22;3699;51.462;6.696;2022-10-23T14:08:02;20.40;99.90
7317;DHT22;3699;51.462;6.696;2022-10-23T14:10:29;20.50;99.90
7317;DHT22;3699;51.462;6.696;2022-10-23T14:12:55;20.40;99.90
7317;DHT22;3699;51.462;6.696;2022-10-23T14:15:22;20.40;99.90
7317;DHT22;3699;51.462;6.696;2022-10-23T14:17:50;20.30;99.90
7317;DHT22;3699;51.462;6.696;2022-10-23T14:20:17;19.80;99.90
7317;DHT22;3699;51.462;6.696;2022-10-23T14:22:44;20.30;99.90
7317;DHT22;3699;51.462;6.696;2022-10-23T14:25:10;20.30;99.90
7317;DHT22;3699;51.462;6.696;2022-10-23T14:27:37;20.20;99.90
7317;DHT22;3699;51.462;6.696;2022-10-23T14:30:05;20.20;99.90
7317;DHT22;3699;51.462;6.696;2022-10-23T14:32:32;20.20;99.90
7317;DHT22;3699;51.462;6.696;2022-10-23T14:35:00;20.20;99.90
7317;DHT22;3699;51.462;6.696;2022-10-23T14:37:28;20.20;99.90
7317;DHT22;3699;51.462;6.696;2022-10-23T14:39:55;20.10;99.90
7317;DHT22;3699;51.462;6.696;2022-10-23T14:42:22;20.10;99.90
7317;DHT22;3699;51.462;6.696;2022-10-23T14:44:49;20.10;99.90
7317;DHT22;3699;51.462;6.696;2022-10-23T14:47:16;20.10;99.90
7317;DHT22;3699;51.462;6.696;2022-10-23T14:49:47;20.00;99.90
7317;DHT22;3699;51.462;6.696;2022-10-23T14:52:16;20.00;99.90
7317;DHT22;3699;51.462;6.696;2022-10-23T14:54:43;20.00;99.90
7317;DHT22;3699;51.462;6.696;2022-10-23T14:57:09;20.00;99.90
7317;DHT22;3699;51.462;6.696;2022-10-23T14:59:36;19.90;99.90
7317;DHT22;3699;51.462;6.696;2022-10-23T15:02:03;19.90;99.90
7317;DHT22;3699;51.462;6.696;2022-10-23T15:04:30;19.80;99.90
7317;DHT22;3699;51.462;6.696;2022-10-23T15:06:57;19.80;99.90
7317;DHT22;3699;51.462;6.696;2022-10-23T15:09:25;19.80;99.90
7317;DHT22;3699;51.462;6.696;2022-10-23T15:11:51;19.80;99.90
7317;DHT22;3699;51.462;6.696;2022-10-23T15:14:18;19.70;99.90
7317;DHT22;3699;51.462;6.696;2022-10-23T15:16:45;19.70;99.90
7317;DHT22;3699;51.462;6.696;2022-10-23T15:19:13;19.60;99.90
7317;DHT22;3699;51.462;6.696;2022-10-23T15:21:41;19.60;99.90
7317;DHT22;3699;51.462;6.696;2022-10-23T15:24:07;19.60;99.90
7317;DHT22;3699;51.462;6.696;2022-10-23T15:26:35;19.50;99.90
7317;DHT22;3699;51.462;6.696;2022-10-23T15:29:03;19.50;99.90
7317;DHT22;3699;51.462;6.696;2022-10-23T15:31:43;19.40;99.90
7317;DHT22;3699;51.462;6.696;2022-10-23T15:34:13;19.40;99.90
7317;DHT22;3699;51.462;6.696;2022-10-23T15:36:40;19.30;99.90
7317;DHT22;3699;51.462;6.696;2022-10-23T15:39:08;19.30;99.90
7317;DHT22;3699;51.462;6.696;2022-10-23T15:41:38;19.20;99.90
7317;DHT22;3699;51.462;6.696;2022-10-23T15:44:07;19.20;99.90
7317;DHT22;3699;51.462;6.696;2022-10-23T15:46:34;19.20;99.90
7317;DHT22;3699;51.462;6.696;2022-10-23T15:49:01;19.10;99.90
7317;DHT22;3699;51.462;6.696;2022-10-23T15:51:28;19.10;99.90
7317;DHT22;3699;51.462;6.696;2022-10-23T15:53:54;19.00;99.90
7317;DHT22;3699;51.462;6.696;2022-10-23T15:56:22;19.00;99.90
7317;DHT22;3699;51.462;6.696;2022-10-23T15:58:51;18.90;99.90
7317;DHT22;3699;51.462;6.696;2022-10-23T16:01:18;18.90;99.90
7317;DHT22;3699;51.462;6.696;2022-10-23T16:03:44;18.70;99.90
7317;DHT22;3699;51.462;6.696;2022-10-23T16:06:13;18.70;99.90
7317;DHT22;3699;51.462;6.696;2022-10-23T16:08:40;18.60;99.90
7317;DHT22;3699;51.462;6.696;2022-10-23T16:11:13;18.50;99.90
7317;DHT22;3699;51.462;6.696;2022-10-23T16:13:40;18.50;99.90
7317;DHT22;3699;51.462;6.696;2022-10-23T16:16:10;18.40;99.90
7317;DHT22;3699;51.462;6.696;2022-10-23T16:18:37;18.30;99.90
7317;DHT22;3699;51.462;6.696;2022-10-23T16:21:05;18.20;99.90
7317;DHT22;3699;51.462;6.696;2022-10-23T16:23:32;18.10;99.90
7317;DHT22;3699;51.462;6.696;2022-10-23T16:26:03;18.10;99.90
7317;DHT22;3699;51.462;6.696;2022-10-23T16:28:31;18.00;99.90
7317;DHT22;3699;51.462;6.696;2022-10-23T16:30:58;17.90;99.90
7317;DHT22;3699;51.462;6.696;2022-10-23T16:33:26;18.00;99.90